sensor_id;sensor_type;location;lat;lon;timestamp;P1;durP1;ratioP1;P2;durP2;ratioP2
2201;SDS011;1107;48.654;9.250;2023-04-23T00:01:12;3.53;;;3.10;;
2201;SDS011;1107;48.654;9.250;2023-04-23T00:03:41;4.13;;;3.13;;
2201;SDS011;1107;48.654;9.250;2023-04-23T00:06:08;3.40;;;3.10;;
2201;SDS011;1107;48.654;9.250;2023-04-23T00:08:39;4.10;;;3.80;;
2201;SDS011;1107;48.654;9.250;2023-04-23T00:11:07;4.07;;;3.23;;
2201;SDS011;1107;48.654;9.250;2023-04-23T00:13:35;4.47;;;3.60;;
2201;SDS011;1107;48.654;9.250;2023-04-23T00:16:03;5.80;;;3.77;;
2201;SDS011;1107;48.654;9.250;2023-04-23T00:18:30;4.17;;;3.83;;
2201;SDS011;1107;48.654;9.250;2023-04-23T00:20:57;8.23;;;3.33;;
2201;SDS011;1107;48.654;9.250;2023-04-23T00:23:24;4.00;;;3.70;;
2201;SDS011;1107;48.654;9.250;2023-04-23T00:25:53;4.27;;;3.20;;
2201;SDS011;1107;48.654;9.250;2023-04-23T00:28:20;3.57;;;3.27;;
2201;SDS011;1107;48.654;9.250;2023-04-23T00:30:47;3.50;;;3.30;;
2201;SDS011;1107;48.654;9.250;2023-04-23T00:33:14;2.87;;;2.67;;
2201;SDS011;1107;48.654;9.250;2023-04-23T00:35:41;3.27;;;3.03;;
2201;SDS011;1107;48.654;9.250;2023-04-23T00:38:08;4.63;;;3.27;;
2201;SDS011;1107;48.654;9.250;2023-04-23T00:40:35;5.63;;;4.10;;
2201;SDS011;1107;48.654;9.250;2023-04-23T00:43:03;6.57;;;3.53;;
2201;SDS011;1107;48.654;9.250;2023-04-23T00:45:32;3.53;;;3.33;;
2201;SDS011;1107;48.654;9.250;2023-04-23T00:47:59;3.43;;;3.23;;
2201;SDS011;1107;48.654;9.250;2023-04-23T00:50:27;3.33;;;3.13;;
2201;SDS011;1107;48.654;9.250;2023-04-23T00:52:54;6.43;;;4.10;;
2201;SDS011;1107;48.654;9.250;2023-04-23T00:55:21;3.20;;;3.00;;
2201;SDS011;1107;48.654;9.250;2023-04-23T00:57:48;4.00;;;3.00;;
2201;SDS011;1107;48.654;9.250;2023-04-23T01:00:17;4.73;;;3.47;;
2201;SDS011;1107;48.654;9.250;2023-04-23T01:02:45;3.70;;;3.40;;
2201;SDS011;1107;48.654;9.250;2023-04-23T01:05:13;3.50;;;3.30;;
2201;SDS011;1107;48.654;9.250;2023-04-23T01:07:42;3.87;;;3.57;;
2201;SDS011;1107;48.654;9.250;2023-04-23T01:10:10;5.03;;;3.70;;
2201;SDS011;1107;48.654;9.250;2023-04-23T01:12:37;3.30;;;3.10;;
2201;SDS011;1107;48.654;9.250;2023-04-23T01:15:05;3.50;;;3.30;;
2201;SDS011;1107;48.654;9.250;2023-04-23T01:17:34;3.63;;;3.33;;
2201;SDS011;1107;48.654;9.250;2023-04-23T01:20:01;3.77;;;3.57;;
2201;SDS011;1107;48.654;9.250;2023-04-23T01:22:31;3.93;;;3.37;;
2201;SDS011;1107;48.654;9.250;2023-04-23T01:24:59;3.83;;;3.53;;
2201;SDS011;1107;48.654;9.250;2023-04-23T01:27:26;3.57;;;3.37;;
2201;SDS011;1107;48.654;9.250;2023-04-23T01:29:53;13.70;;;3.13;;
2201;SDS011;1107;48.654;9.250;2023-04-23T01:32:20;4.00;;;3.70;;
2201;SDS011;1107;48.654;9.250;2023-04-23T01:34:49;3.50;;;2.67;;
2201;SDS011;1107;48.654;9.250;2023-04-23T01:37:19;3.40;;;3.20;;
2201;SDS011;1107;48.654;9.250;2023-04-23T01:39:48;3.53;;;3.23;;
2201;SDS011;1107;48.654;9.250;2023-04-23T01:42:16;2.90;;;2.70;;
2201;SDS011;1107;48.654;9.250;2023-04-23T01:44:43;3.07;;;2.87;;
2201;SDS011;1107;48.654;9.250;2023-04-23T01:47:10;4.27;;;3.87;;
2201;SDS011;1107;48.654;9.250;2023-04-23T01:49:37;3.60;;;2.50;;
2201;SDS011;1107;48.654;9.250;2023-04-23T01:52:04;3.50;;;2.80;;
2201;SDS011;1107;48.654;9.250;2023-04-23T01:54:31;2.60;;;2.40;;
2201;SDS011;1107;48.654;9.250;2023-04-23T01:56:59;2.90;;;2.70;;
2201;SDS011;1107;48.654;9.250;2023-04-23T01:59:27;2.73;;;2.40;;
2201;SDS011;1107;48.654;9.250;2023-04-23T02:01:53;3.00;;;2.70;;
2201;SDS011;1107;48.654;9.250;2023-04-23T02:04:20;2.30;;;2.10;;
2201;SDS011;1107;48.654;9.250;2023-04-23T02:06:48;3.07;;;2.87;;
2201;SDS011;1107;48.654;9.250;2023-04-23T02:09:16;2.90;;;2.70;;
2201;SDS011;1107;48.654;9.250;2023-04-23T02:11:43;3.10;;;2.50;;
2201;SDS011;1107;48.654;9.250;2023-04-23T02:14:11;2.50;;;2.30;;
2201;SDS011;1107;48.654;9.250;2023-04-23T02:16:38;3.70;;;3.00;;
2201;SDS011;1107;48.654;9.250;2023-04-23T02:19:05;3.00;;;2.80;;
2201;SDS011;1107;48.654;9.250;2023-04-23T02:21:32;2.97;;;2.77;;
2201;SDS011;1107;48.654;9.250;2023-04-23T02:23:59;2.60;;;2.40;;
2201;SDS011;1107;48.654;9.250;2023-04-23T02:26:26;5.03;;;2.90;;
2201;SDS011;1107;48.654;9.250;2023-04-23T02:28:53;2.70;;;2.50;;
2201;SDS011;1107;48.654;9.250;2023-04-23T02:31:22;2.80;;;2.60;;
2201;SDS011;1107;48.654;9.250;2023-04-23T02:33:49;3.20;;;2.43;;
2201;SDS011;1107;48.654;9.250;2023-04-23T02:36:16;2.60;;;2.40;;
2201;SDS011;1107;48.654;9.250;2023-04-23T02:38:43;2.53;;;2.33;;
2201;SDS011;1107;48.654;9.250;2023-04-23T02:41:12;3.30;;;2.60;;
2201;SDS011;1107;48.654;9.250;2023-04-23T02:43:39;2.67;;;2.47;;
2201;SDS011;1107;48.654;9.250;2023-04-23T02:46:06;2.87;;;2.60;;
2201;SDS011;1107;48.654;9.250;2023-04-23T02:48:38;2.60;;;2.40;;
2201;SDS011;1107;48.654;9.250;2023-04-23T02:51:07;5.00;;;2.53;;
2201;SDS011;1107;48.654;9.250;2023-04-23T02:53:35;2.70;;;2.50;;
2201;SDS011;1107;48.654;9.250;2023-04-23T02:56:02;3.37;;;3.17;;
2201;SDS011;1107;48.654;9.250;2023-04-23T02:58:29;3.50;;;3.30;;
2201;SDS011;1107;48.654;9.250;2023-04-23T03:00:56;3.63;;;3.43;;
2201;SDS011;1107;48.654;9.250;2023-04-23T03:03:26;5.03;;;2.80;;
2201;SDS011;1107;48.654;9.250;2023-04-23T03:05:57;2.77;;;2.57;;
2201;SDS011;1107;48.654;9.250;2023-04-23T03:08:24;3.60;;;3.00;;
2201;SDS011;1107;48.654;9.250;2023-04-23T03:10:51;2.70;;;2.50;;
2201;SDS011;1107;48.654;9.250;2023-04-23T03:13:18;3.03;;;2.83;;
2201;SDS011;1107;48.654;9.250;2023-04-23T03:15:45;5.73;;;2.77;;
2201;SDS011;1107;48.654;9.250;2023-04-23T03:18:13;2.90;;;2.70;;
2201;SDS011;1107;48.654;9.250;2023-04-23T03:20:40;2.97;;;2.77;;
2201;SDS011;1107;48.654;9.250;2023-04-23T03:23:08;3.17;;;2.97;;
2201;SDS011;1107;48.654;9.250;2023-04-23T03:25:35;2.73;;;2.53;;
2201;SDS011;1107;48.654;9.250;2023-04-23T03:28:02;2.70;;;2.50;;
2201;SDS011;1107;48.654;9.250;2023-04-23T03:30:29;2.70;;;2.50;;
2201;SDS011;1107;48.654;9.250;2023-04-23T03:32:56;2.70;;;2.50;;
2201;SDS011;1107;48.654;9.250;2023-04-23T03:35:26;2.50;;;2.30;;
2201;SDS011;1107;48.654;9.250;2023-04-23T03:37:53;3.63;;;2.23;;
2201;SDS011;1107;48.654;9.250;2023-04-23T03:40:21;2.80;;;2.60;;
2201;SDS011;1107;48.654;9.250;2023-04-23T03:42:48;18.47;;;3.73;;
2201;SDS011;1107;48.654;9.250;2023-04-23T03:45:15;3.93;;;3.03;;
2201;SDS011;1107;48.654;9.250;2023-04-23T03:47:42;3.50;;;3.30;;
2201;SDS011;1107;48.654;9.250;2023-04-23T03:50:10;4.10;;;3.90;;
2201;SDS011;1107;48.654;9.250;2023-04-23T03:52:38;4.83;;;4.43;;
2201;SDS011;1107;48.654;9.250;2023-04-23T03:55:05;6.63;;;4.10;;
2201;SDS011;1107;48.654;9.250;2023-04-23T03:57:34;4.83;;;4.00;;
2201;SDS011;1107;48.654;9.250;2023-04-23T04:00:02;6.37;;;4.70;;
2201;SDS011;1107;48.654;9.250;2023-04-23T04:02:32;5.20;;;4.90;;
2201;SDS011;1107;48.654;9.250;2023-04-23T04:04:59;10.30;;;4.30;;
2201;SDS011;1107;48.654;9.250;2023-04-23T04:07:26;4.97;;;4.47;;
2201;SDS011;1107;48.654;9.250;2023-04-23T04:09:53;5.10;;;4.80;;
2201;SDS011;1107;48.654;9.250;2023-04-23T04:12:20;4.37;;;4.07;;
2201;SDS011;1107;48.654;9.250;2023-04-23T04:14:48;3.90;;;3.70;;
2201;SDS011;1107;48.654;9.250;2023-04-23T04:17:15;4.57;;;4.27;;
2201;SDS011;1107;48.654;9.250;2023-04-23T04:19:42;3.63;;;3.37;;
2201;SDS011;1107;48.654;9.250;2023-04-23T04:22:09;4.10;;;3.90;;
2201;SDS011;1107;48.654;9.250;2023-04-23T04:24:36;3.53;;;3.33;;
2201;SDS011;1107;48.654;9.250;2023-04-23T04:27:05;3.40;;;3.20;;
2201;SDS011;1107;48.654;9.250;2023-04-23T04:29:33;3.73;;;3.43;;
2201;SDS011;1107;48.654;9.250;2023-04-23T04:32:01;3.90;;;3.60;;
2201;SDS011;1107;48.654;9.250;2023-04-23T04:34:29;4.20;;;3.90;;
2201;SDS011;1107;48.654;9.250;2023-04-23T04:36:56;4.67;;;4.37;;
2201;SDS011;1107;48.654;9.250;2023-04-23T04:39:23;4.20;;;3.90;;
2201;SDS011;1107;48.654;9.250;2023-04-23T04:41:50;3.60;;;3.40;;
2201;SDS011;1107;48.654;9.250;2023-04-23T04:44:17;3.30;;;3.10;;
2201;SDS011;1107;48.654;9.250;2023-04-23T04:46:44;3.57;;;3.37;;
2201;SDS011;1107;48.654;9.250;2023-04-23T04:49:13;4.40;;;3.13;;
2201;SDS011;1107;48.654;9.250;2023-04-23T04:51:43;3.60;;;3.33;;
2201;SDS011;1107;48.654;9.250;2023-04-23T04:54:10;3.53;;;3.33;;
2201;SDS011;1107;48.654;9.250;2023-04-23T04:56:37;3.70;;;3.40;;
2201;SDS011;1107;48.654;9.250;2023-04-23T04:59:04;3.40;;;3.20;;
2201;SDS011;1107;48.654;9.250;2023-04-23T05:01:31;4.03;;;3.70;;
2201;SDS011;1107;48.654;9.250;2023-04-23T05:04:01;3.60;;;3.40;;
2201;SDS011;1107;48.654;9.250;2023-04-23T05:06:29;3.43;;;3.23;;
2201;SDS011;1107;48.654;9.250;2023-04-23T05:08:57;3.80;;;3.60;;
2201;SDS011;1107;48.654;9.250;2023-04-23T05:11:24;3.90;;;3.60;;
2201;SDS011;1107;48.654;9.250;2023-04-23T05:13:51;3.90;;;3.70;;
2201;SDS011;1107;48.654;9.250;2023-04-23T05:16:17;3.93;;;3.73;;
2201;SDS011;1107;48.654;9.250;2023-04-23T05:18:45;4.27;;;3.97;;
2201;SDS011;1107;48.654;9.250;2023-04-23T05:21:12;4.30;;;4.00;;
2201;SDS011;1107;48.654;9.250;2023-04-23T05:23:41;4.30;;;4.00;;
2201;SDS011;1107;48.654;9.250;2023-04-23T05:26:08;4.83;;;3.90;;
2201;SDS011;1107;48.654;9.250;2023-04-23T05:28:35;4.80;;;4.50;;
2201;SDS011;1107;48.654;9.250;2023-04-23T05:31:02;4.10;;;3.60;;
2201;SDS011;1107;48.654;9.250;2023-04-23T05:33:29;4.40;;;4.20;;
2201;SDS011;1107;48.654;9.250;2023-04-23T05:35:57;4.13;;;3.93;;
2201;SDS011;1107;48.654;9.250;2023-04-23T05:38:24;3.67;;;3.47;;
2201;SDS011;1107;48.654;9.250;2023-04-23T05:40:52;4.60;;;4.30;;
2201;SDS011;1107;48.654;9.250;2023-04-23T05:43:19;5.00;;;4.70;;
2201;SDS011;1107;48.654;9.250;2023-04-23T05:45:46;3.83;;;3.63;;
2201;SDS011;1107;48.654;9.250;2023-04-23T05:48:13;3.93;;;3.63;;
2201;SDS011;1107;48.654;9.250;2023-04-23T05:50:40;4.03;;;3.67;;
2201;SDS011;1107;48.654;9.250;2023-04-23T05:53:07;3.93;;;3.73;;
2201;SDS011;1107;48.654;9.250;2023-04-23T05:55:34;5.93;;;2.97;;
2201;SDS011;1107;48.654;9.250;2023-04-23T05:58:02;3.50;;;3.20;;
2201;SDS011;1107;48.654;9.250;2023-04-23T06:00:30;3.80;;;2.97;;
2201;SDS011;1107;48.654;9.250;2023-04-23T06:02:59;5.77;;;4.03;;
2201;SDS011;1107;48.654;9.250;2023-04-23T06:05:26;3.43;;;3.23;;
2201;SDS011;1107;48.654;9.250;2023-04-23T06:07:53;5.07;;;4.77;;
2201;SDS011;1107;48.654;9.250;2023-04-23T06:10:20;3.30;;;3.10;;
2201;SDS011;1107;48.654;9.250;2023-04-23T06:12:47;3.20;;;3.00;;
2201;SDS011;1107;48.654;9.250;2023-04-23T06:15:15;3.50;;;3.30;;
2201;SDS011;1107;48.654;9.250;2023-04-23T06:17:42;2.83;;;2.63;;
2201;SDS011;1107;48.654;9.250;2023-04-23T06:20:09;2.77;;;2.57;;
2201;SDS011;1107;48.654;9.250;2023-04-23T06:22:36;3.10;;;2.33;;
2201;SDS011;1107;48.654;9.250;2023-04-23T06:25:04;3.33;;;1.90;;
2201;SDS011;1107;48.654;9.250;2023-04-23T06:27:31;2.50;;;2.30;;
2201;SDS011;1107;48.654;9.250;2023-04-23T06:29:58;2.10;;;1.90;;
2201;SDS011;1107;48.654;9.250;2023-04-23T06:32:26;2.17;;;1.97;;
2201;SDS011;1107;48.654;9.250;2023-04-23T06:34:53;1.83;;;1.63;;
2201;SDS011;1107;48.654;9.250;2023-04-23T06:37:20;1.77;;;1.67;;
2201;SDS011;1107;48.654;9.250;2023-04-23T06:39:47;1.70;;;1.50;;
2201;SDS011;1107;48.654;9.250;2023-04-23T06:42:14;1.97;;;1.77;;
2201;SDS011;1107;48.654;9.250;2023-04-23T06:44:42;2.77;;;1.77;;
2201;SDS011;1107;48.654;9.250;2023-04-23T06:47:10;3.33;;;1.60;;
2201;SDS011;1107;48.654;9.250;2023-04-23T06:49:39;3.10;;;1.70;;
2201;SDS011;1107;48.654;9.250;2023-04-23T06:52:06;1.60;;;1.37;;
2201;SDS011;1107;48.654;9.250;2023-04-23T06:54:33;1.67;;;1.57;;
2201;SDS011;1107;48.654;9.250;2023-04-23T06:57:00;1.50;;;1.30;;
2201;SDS011;1107;48.654;9.250;2023-04-23T06:59:27;1.70;;;1.50;;
2201;SDS011;1107;48.654;9.250;2023-04-23T07:01:54;1.70;;;1.60;;
2201;SDS011;1107;48.654;9.250;2023-04-23T07:04:21;1.77;;;1.17;;
2201;SDS011;1107;48.654;9.250;2023-04-23T07:06:49;1.63;;;1.40;;
2201;SDS011;1107;48.654;9.250;2023-04-23T07:09:16;1.50;;;1.33;;
2201;SDS011;1107;48.654;9.250;2023-04-23T07:11:44;1.50;;;1.07;;
2201;SDS011;1107;48.654;9.250;2023-04-23T07:14:10;1.77;;;1.23;;
2201;SDS011;1107;48.654;9.250;2023-04-23T07:16:37;2.47;;;1.40;;
2201;SDS011;1107;48.654;9.250;2023-04-23T07:19:04;1.70;;;1.43;;
2201;SDS011;1107;48.654;9.250;2023-04-23T07:21:31;1.97;;;1.33;;
2201;SDS011;1107;48.654;9.250;2023-04-23T07:24:00;2.93;;;1.20;;
2201;SDS011;1107;48.654;9.250;2023-04-23T07:26:30;1.47;;;1.03;;
2201;SDS011;1107;48.654;9.250;2023-04-23T07:28:58;1.43;;;1.23;;
2201;SDS011;1107;48.654;9.250;2023-04-23T07:31:25;1.40;;;0.80;;
2201;SDS011;1107;48.654;9.250;2023-04-23T07:33:52;1.50;;;1.10;;
2201;SDS011;1107;48.654;9.250;2023-04-23T07:36:19;1.87;;;1.03;;
2201;SDS011;1107;48.654;9.250;2023-04-23T07:38:46;1.50;;;1.10;;
2201;SDS011;1107;48.654;9.250;2023-04-23T07:41:16;2.80;;;1.73;;
2201;SDS011;1107;48.654;9.250;2023-04-23T07:43:43;2.80;;;1.00;;
2201;SDS011;1107;48.654;9.250;2023-04-23T07:46:10;1.50;;;1.13;;
2201;SDS011;1107;48.654;9.250;2023-04-23T07:48:37;1.50;;;1.27;;
2201;SDS011;1107;48.654;9.250;2023-04-23T07:51:04;1.50;;;1.07;;
2201;SDS011;1107;48.654;9.250;2023-04-23T07:53:31;1.63;;;1.53;;
2201;SDS011;1107;48.654;9.250;2023-04-23T07:55:58;1.90;;;1.10;;
2201;SDS011;1107;48.654;9.250;2023-04-23T07:58:27;1.50;;;1.30;;
2201;SDS011;1107;48.654;9.250;2023-04-23T08:00:54;1.50;;;0.93;;
2201;SDS011;1107;48.654;9.250;2023-04-23T08:03:21;1.50;;;1.20;;
2201;SDS011;1107;48.654;9.250;2023-04-23T08:05:48;1.60;;;1.50;;
2201;SDS011;1107;48.654;9.250;2023-04-23T08:08:15;1.70;;;1.40;;
2201;SDS011;1107;48.654;9.250;2023-04-23T08:10:42;1.40;;;0.93;;
2201;SDS011;1107;48.654;9.250;2023-04-23T08:13:09;1.30;;;0.90;;
2201;SDS011;1107;48.654;9.250;2023-04-23T08:15:37;1.70;;;1.07;;
2201;SDS011;1107;48.654;9.250;2023-04-23T08:18:04;1.80;;;1.10;;
2201;SDS011;1107;48.654;9.250;2023-04-23T08:20:31;1.50;;;1.30;;
2201;SDS011;1107;48.654;9.250;2023-04-23T08:22:59;1.50;;;1.17;;
2201;SDS011;1107;48.654;9.250;2023-04-23T08:25:26;1.50;;;1.10;;
2201;SDS011;1107;48.654;9.250;2023-04-23T08:27:53;1.40;;;0.90;;
2201;SDS011;1107;48.654;9.250;2023-04-23T08:30:20;1.40;;;1.17;;
2201;SDS011;1107;48.654;9.250;2023-04-23T08:32:49;1.70;;;1.60;;
2201;SDS011;1107;48.654;9.250;2023-04-23T08:35:17;1.90;;;1.00;;
2201;SDS011;1107;48.654;9.250;2023-04-23T08:37:44;1.50;;;1.00;;
2201;SDS011;1107;48.654;9.250;2023-04-23T08:40:11;1.93;;;1.20;;
2201;SDS011;1107;48.654;9.250;2023-04-23T08:42:41;1.47;;;1.13;;
2201;SDS011;1107;48.654;9.250;2023-04-23T08:45:09;1.70;;;1.13;;
2201;SDS011;1107;48.654;9.250;2023-04-23T08:47:38;1.60;;;1.40;;
2201;SDS011;1107;48.654;9.250;2023-04-23T08:50:10;1.40;;;1.10;;
2201;SDS011;1107;48.654;9.250;2023-04-23T08:52:39;1.60;;;1.40;;
2201;SDS011;1107;48.654;9.250;2023-04-23T08:55:08;2.23;;;1.17;;
2201;SDS011;1107;48.654;9.250;2023-04-23T08:57:39;2.40;;;1.13;;
2201;SDS011;1107;48.654;9.250;2023-04-23T09:00:06;1.50;;;1.10;;
2201;SDS011;1107;48.654;9.250;2023-04-23T09:02:36;1.40;;;1.30;;
2201;SDS011;1107;48.654;9.250;2023-04-23T09:05:05;1.50;;;1.30;;
2201;SDS011;1107;48.654;9.250;2023-04-23T09:07:34;1.50;;;1.23;;
2201;SDS011;1107;48.654;9.250;2023-04-23T09:10:02;1.60;;;1.30;;
2201;SDS011;1107;48.654;9.250;2023-04-23T09:12:30;1.40;;;1.00;;
2201;SDS011;1107;48.654;9.250;2023-04-23T09:14:57;1.60;;;1.40;;
2201;SDS011;1107;48.654;9.250;2023-04-23T09:17:25;1.50;;;1.00;;
2201;SDS011;1107;48.654;9.250;2023-04-23T09:19:54;1.47;;;1.10;;
2201;SDS011;1107;48.654;9.250;2023-04-23T09:25:05;1.60;;;1.10;;
2201;SDS011;1107;48.654;9.250;2023-04-23T09:27:33;1.40;;;1.20;;
2201;SDS011;1107;48.654;9.250;2023-04-23T09:30:01;2.10;;;1.47;;
2201;SDS011;1107;48.654;9.250;2023-04-23T09:32:32;1.47;;;1.37;;
2201;SDS011;1107;48.654;9.250;2023-04-23T09:35:04;1.50;;;1.10;;
2201;SDS011;1107;48.654;9.250;2023-04-23T09:37:32;1.47;;;1.30;;
2201;SDS011;1107;48.654;9.250;2023-04-23T09:40:01;2.40;;;1.40;;
2201;SDS011;1107;48.654;9.250;2023-04-23T09:42:29;3.73;;;1.23;;
2201;SDS011;1107;48.654;9.250;2023-04-23T09:44:59;1.40;;;1.10;;
2201;SDS011;1107;48.654;9.250;2023-04-23T09:47:30;1.60;;;1.40;;
2201;SDS011;1107;48.654;9.250;2023-04-23T09:49:59;1.50;;;1.23;;
2201;SDS011;1107;48.654;9.250;2023-04-23T09:52:27;2.00;;;1.80;;
2201;SDS011;1107;48.654;9.250;2023-04-23T09:54:56;1.60;;;1.40;;
2201;SDS011;1107;48.654;9.250;2023-04-23T09:57:25;1.60;;;1.23;;
2201;SDS011;1107;48.654;9.250;2023-04-23T09:59:55;1.77;;;1.67;;
2201;SDS011;1107;48.654;9.250;2023-04-23T10:02:25;1.90;;;1.80;;
2201;SDS011;1107;48.654;9.250;2023-04-23T10:04:53;1.60;;;1.50;;
2201;SDS011;1107;48.654;9.250;2023-04-23T10:07:21;1.50;;;1.30;;
2201;SDS011;1107;48.654;9.250;2023-04-23T10:09:49;1.67;;;1.20;;
2201;SDS011;1107;48.654;9.250;2023-04-23T10:12:16;1.50;;;1.30;;
2201;SDS011;1107;48.654;9.250;2023-04-23T10:14:46;1.60;;;1.50;;
2201;SDS011;1107;48.654;9.250;2023-04-23T10:17:17;1.40;;;1.20;;
2201;SDS011;1107;48.654;9.250;2023-04-23T10:19:44;1.60;;;1.30;;
2201;SDS011;1107;48.654;9.250;2023-04-23T10:22:12;1.50;;;1.30;;
2201;SDS011;1107;48.654;9.250;2023-04-23T10:24:41;2.30;;;1.60;;
2201;SDS011;1107;48.654;9.250;2023-04-23T10:27:12;1.60;;;1.20;;
2201;SDS011;1107;48.654;9.250;2023-04-23T10:29:40;1.73;;;1.40;;
2201;SDS011;1107;48.654;9.250;2023-04-23T10:32:09;1.50;;;1.30;;
2201;SDS011;1107;48.654;9.250;2023-04-23T10:34:37;1.50;;;1.33;;
2201;SDS011;1107;48.654;9.250;2023-04-23T10:37:06;1.50;;;1.07;;
2201;SDS011;1107;48.654;9.250;2023-04-23T10:39:33;1.50;;;1.30;;
2201;SDS011;1107;48.654;9.250;2023-04-23T10:42:01;1.80;;;1.23;;
2201;SDS011;1107;48.654;9.250;2023-04-23T10:44:32;1.50;;;1.27;;
2201;SDS011;1107;48.654;9.250;2023-04-23T10:47:02;1.50;;;1.10;;
2201;SDS011;1107;48.654;9.250;2023-04-23T10:49:31;1.60;;;1.50;;
2201;SDS011;1107;48.654;9.250;2023-04-23T10:52:00;1.70;;;1.30;;
2201;SDS011;1107;48.654;9.250;2023-04-23T10:54:29;1.40;;;1.03;;
2201;SDS011;1107;48.654;9.250;2023-04-23T10:56:57;1.73;;;1.33;;
2201;SDS011;1107;48.654;9.250;2023-04-23T10:59:25;1.40;;;1.10;;
2201;SDS011;1107;48.654;9.250;2023-04-23T11:01:55;1.50;;;1.10;;
2201;SDS011;1107;48.654;9.250;2023-04-23T11:04:24;1.67;;;1.57;;
2201;SDS011;1107;48.654;9.250;2023-04-23T11:06:55;1.67;;;1.10;;
2201;SDS011;1107;48.654;9.250;2023-04-23T11:09:29;1.50;;;1.27;;
2201;SDS011;1107;48.654;9.250;2023-04-23T11:11:57;1.40;;;1.20;;
2201;SDS011;1107;48.654;9.250;2023-04-23T11:14:35;1.40;;;1.20;;
2201;SDS011;1107;48.654;9.250;2023-04-23T11:17:06;1.50;;;1.20;;
2201;SDS011;1107;48.654;9.250;2023-04-23T11:19:36;3.70;;;1.30;;
2201;SDS011;1107;48.654;9.250;2023-04-23T11:22:05;3.80;;;1.40;;
2201;SDS011;1107;48.654;9.250;2023-04-23T11:24:38;1.50;;;1.10;;
2201;SDS011;1107;48.654;9.250;2023-04-23T11:27:07;1.50;;;1.30;;
2201;SDS011;1107;48.654;9.250;2023-04-23T11:29:35;1.60;;;1.20;;
2201;SDS011;1107;48.654;9.250;2023-04-23T11:32:03;1.60;;;1.33;;
2201;SDS011;1107;48.654;9.250;2023-04-23T11:34:34;1.50;;;1.30;;
2201;SDS011;1107;48.654;9.250;2023-04-23T11:37:02;1.60;;;1.20;;
2201;SDS011;1107;48.654;9.250;2023-04-23T11:39:31;3.00;;;1.30;;
2201;SDS011;1107;48.654;9.250;2023-04-23T11:41:58;1.40;;;1.27;;
2201;SDS011;1107;48.654;9.250;2023-04-23T11:44:27;1.60;;;1.37;;
2201;SDS011;1107;48.654;9.250;2023-04-23T11:46:57;1.43;;;1.20;;
2201;SDS011;1107;48.654;9.250;2023-04-23T11:49:26;1.50;;;1.30;;
2201;SDS011;1107;48.654;9.250;2023-04-23T11:51:53;1.83;;;1.70;;
2201;SDS011;1107;48.654;9.250;2023-04-23T11:54:23;1.67;;;1.57;;
2201;SDS011;1107;48.654;9.250;2023-04-23T11:56:53;1.50;;;1.10;;
2201;SDS011;1107;48.654;9.250;2023-04-23T11:59:22;1.70;;;1.60;;
2201;SDS011;1107;48.654;9.250;2023-04-23T12:01:50;2.10;;;1.60;;
2201;SDS011;1107;48.654;9.250;2023-04-23T12:04:20;1.60;;;1.50;;
2201;SDS011;1107;48.654;9.250;2023-04-23T12:06:49;3.73;;;1.37;;
2201;SDS011;1107;48.654;9.250;2023-04-23T12:09:18;1.60;;;1.40;;
2201;SDS011;1107;48.654;9.250;2023-04-23T12:11:46;1.50;;;1.40;;
2201;SDS011;1107;48.654;9.250;2023-04-23T12:14:17;1.60;;;1.30;;
2201;SDS011;1107;48.654;9.250;2023-04-23T12:16:48;1.63;;;1.53;;
2201;SDS011;1107;48.654;9.250;2023-04-23T12:19:17;1.50;;;1.40;;
2201;SDS011;1107;48.654;9.250;2023-04-23T12:21:46;2.03;;;1.83;;
2201;SDS011;1107;48.654;9.250;2023-04-23T12:24:14;1.67;;;1.57;;
2201;SDS011;1107;48.654;9.250;2023-04-23T12:26:41;1.80;;;1.70;;
2201;SDS011;1107;48.654;9.250;2023-04-23T12:29:08;1.50;;;1.37;;
2201;SDS011;1107;48.654;9.250;2023-04-23T12:31:40;1.60;;;1.43;;
2201;SDS011;1107;48.654;9.250;2023-04-23T12:34:09;2.77;;;1.70;;
2201;SDS011;1107;48.654;9.250;2023-04-23T12:36:38;1.90;;;1.40;;
2201;SDS011;1107;48.654;9.250;2023-04-23T12:39:18;1.73;;;1.20;;
2201;SDS011;1107;48.654;9.250;2023-04-23T12:41:54;1.90;;;1.43;;
2201;SDS011;1107;48.654;9.250;2023-04-23T12:44:24;1.47;;;1.13;;
2201;SDS011;1107;48.654;9.250;2023-04-23T12:46:56;1.50;;;1.20;;
2201;SDS011;1107;48.654;9.250;2023-04-23T12:49:24;1.70;;;1.60;;
2201;SDS011;1107;48.654;9.250;2023-04-23T12:51:52;1.50;;;1.30;;
2201;SDS011;1107;48.654;9.250;2023-04-23T12:54:22;1.70;;;1.40;;
2201;SDS011;1107;48.654;9.250;2023-04-23T12:56:49;2.73;;;1.30;;
2201;SDS011;1107;48.654;9.250;2023-04-23T12:59:16;1.53;;;1.20;;
2201;SDS011;1107;48.654;9.250;2023-04-23T13:01:43;1.60;;;1.40;;
2201;SDS011;1107;48.654;9.250;2023-04-23T13:04:12;1.50;;;1.30;;
2201;SDS011;1107;48.654;9.250;2023-04-23T13:06:39;1.40;;;1.20;;
2201;SDS011;1107;48.654;9.250;2023-04-23T13:09:06;1.70;;;1.60;;
2201;SDS011;1107;48.654;9.250;2023-04-23T13:11:34;2.70;;;1.43;;
2201;SDS011;1107;48.654;9.250;2023-04-23T13:14:01;1.77;;;1.67;;
2201;SDS011;1107;48.654;9.250;2023-04-23T13:16:28;2.17;;;1.40;;
2201;SDS011;1107;48.654;9.250;2023-04-23T13:18:56;2.20;;;1.27;;
2201;SDS011;1107;48.654;9.250;2023-04-23T13:21:24;1.70;;;1.47;;
2201;SDS011;1107;48.654;9.250;2023-04-23T13:23:51;1.60;;;1.37;;
2201;SDS011;1107;48.654;9.250;2023-04-23T13:26:18;3.50;;;1.73;;
2201;SDS011;1107;48.654;9.250;2023-04-23T13:28:46;1.60;;;1.37;;
2201;SDS011;1107;48.654;9.250;2023-04-23T13:31:13;1.40;;;1.00;;
2201;SDS011;1107;48.654;9.250;2023-04-23T13:33:40;1.60;;;1.10;;
2201;SDS011;1107;48.654;9.250;2023-04-23T13:36:07;1.70;;;1.30;;
2201;SDS011;1107;48.654;9.250;2023-04-23T13:38:36;2.20;;;1.57;;
2201;SDS011;1107;48.654;9.250;2023-04-23T13:41:03;1.60;;;1.30;;
2201;SDS011;1107;48.654;9.250;2023-04-23T13:43:30;1.80;;;1.27;;
2201;SDS011;1107;48.654;9.250;2023-04-23T13:45:57;1.40;;;1.27;;
2201;SDS011;1107;48.654;9.250;2023-04-23T13:48:25;1.60;;;1.30;;
2201;SDS011;1107;48.654;9.250;2023-04-23T13:50:55;1.70;;;1.53;;
2201;SDS011;1107;48.654;9.250;2023-04-23T13:53:22;1.50;;;1.30;;
2201;SDS011;1107;48.654;9.250;2023-04-23T13:55:51;1.43;;;1.20;;
2201;SDS011;1107;48.654;9.250;2023-04-23T13:58:18;1.60;;;1.20;;
2201;SDS011;1107;48.654;9.250;2023-04-23T14:00:46;1.90;;;1.70;;
2201;SDS011;1107;48.654;9.250;2023-04-23T14:03:12;1.50;;;1.27;;
2201;SDS011;1107;48.654;9.250;2023-04-23T14:05:39;1.60;;;1.33;;
2201;SDS011;1107;48.654;9.250;2023-04-23T14:08:06;1.50;;;1.40;;
2201;SDS011;1107;48.654;9.250;2023-04-23T14:10:33;2.30;;;2.10;;
2201;SDS011;1107;48.654;9.250;2023-04-23T14:13:02;1.60;;;1.30;;
2201;SDS011;1107;48.654;9.250;2023-04-23T14:15:29;1.87;;;1.43;;
2201;SDS011;1107;48.654;9.250;2023-04-23T14:17:56;1.90;;;1.40;;
2201;SDS011;1107;48.654;9.250;2023-04-23T14:20:23;1.50;;;1.30;;
2201;SDS011;1107;48.654;9.250;2023-04-23T14:22:54;1.83;;;1.50;;
2201;SDS011;1107;48.654;9.250;2023-04-23T14:25:23;2.20;;;1.33;;
2201;SDS011;1107;48.654;9.250;2023-04-23T14:27:54;1.80;;;1.47;;
2201;SDS011;1107;48.654;9.250;2023-04-23T14:30:23;1.97;;;1.80;;
2201;SDS011;1107;48.654;9.250;2023-04-23T14:32:52;1.70;;;1.33;;
2201;SDS011;1107;48.654;9.250;2023-04-23T14:35:20;1.40;;;1.30;;
2201;SDS011;1107;48.654;9.250;2023-04-23T14:37:48;1.70;;;1.50;;
2201;SDS011;1107;48.654;9.250;2023-04-23T14:40:15;1.87;;;1.47;;
2201;SDS011;1107;48.654;9.250;2023-04-23T14:42:45;2.20;;;2.00;;
2201;SDS011;1107;48.654;9.250;2023-04-23T14:45:13;2.17;;;1.70;;
2201;SDS011;1107;48.654;9.250;2023-04-23T14:47:43;1.40;;;1.20;;
2201;SDS011;1107;48.654;9.250;2023-04-23T14:50:12;1.70;;;1.43;;
2201;SDS011;1107;48.654;9.250;2023-04-23T14:52:40;2.90;;;1.27;;
2201;SDS011;1107;48.654;9.250;2023-04-23T14:55:09;1.60;;;1.30;;
2201;SDS011;1107;48.654;9.250;2023-04-23T14:57:36;2.00;;;1.50;;
2201;SDS011;1107;48.654;9.250;2023-04-23T15:00:03;2.40;;;1.57;;
2201;SDS011;1107;48.654;9.250;2023-04-23T15:02:32;1.70;;;1.50;;
2201;SDS011;1107;48.654;9.250;2023-04-23T15:05:01;1.53;;;1.20;;
2201;SDS011;1107;48.654;9.250;2023-04-23T15:07:28;1.80;;;1.70;;
2201;SDS011;1107;48.654;9.250;2023-04-23T15:09:57;1.93;;;1.67;;
2201;SDS011;1107;48.654;9.250;2023-04-23T15:12:41;2.00;;;1.40;;
2201;SDS011;1107;48.654;9.250;2023-04-23T15:15:15;1.83;;;1.60;;
2201;SDS011;1107;48.654;9.250;2023-04-23T15:17:47;1.73;;;1.60;;
2201;SDS011;1107;48.654;9.250;2023-04-23T15:20:16;5.13;;;1.60;;
2201;SDS011;1107;48.654;9.250;2023-04-23T15:22:43;1.60;;;1.50;;